Time;durP1;ratioP1;P1;durP2;ratioP2;P2;SDS_P1;SDS_P2;PMS_P1;PMS_P2;Temp;Humidity;BMP_temperature;BMP_pressure;BME280_temperature;BME280_humidity;BME280_pressure;Samples;Min_cycle;Max_cycle;Signal;HPM_P1;HPM_P2
2022/02/10 09:16:12;;;;;;;8.75;5.78;;;;;;;;;;10624936;27;20039;-80
2022/02/10 10:05:08;;;;;;;11.25;6.93;;;;;;;;;;10676982;27;20022;-78
2022/02/10 10:48:50;;;;;;;6.93;5.43;;;;;;;;;;10654540;28;20114;-82
2022/02/10 10:53:31;;;;;;;7.63;6.13;;;;;;;;;;10653512;28;20058;-80
2022/02/10 11:47:25;;;;;;;5.47;3.63;;;;;;;;;;10661331;27;20050;-83
2022/02/10 14:21:00;;;;;;;3.53;2.20;;;;;;;;;;10635591;27;20554;-81
2022/02/10 14:26:08;;;;;;;3.08;2.50;;;;;;;;;;10634606;27;20034;-82
2022/02/10 14:31:09;;;;;;;3.88;2.50;;;;;;;;;;10619135;27;20020;-81
2022/02/10 14:36:17;;;;;;;4.20;2.38;;;;;;;;;;10647636;27;20019;-81
2022/02/10 14:42:06;;;;;;;3.45;2.22;;;;;;;;;;10639535;27;20466;-80
2022/02/10 15:56:07;;;;;;;3.40;2.40;;;;;;;;;;10645959;27;20014;-81
2022/02/10 16:16:54;;;;;;;3.78;2.10;;;;;;;;;;10644749;27;20070;-83
2022/02/10 16:22:02;;;;;;;4.68;1.85;;;;;;;;;;10624977;27;20471;-82
2022/02/10 16:27:21;;;;;;;4.10;2.38;;;;;;;;;;10624463;27;20027;-82
2022/02/10 16:32:23;;;;;;;4.32;2.65;;;;;;;;;;10623461;27;20110;-82
2022/02/10 16:37:24;;;;;;;5.65;3.42;;;;;;;;;;10641323;27;20030;-81
2022/02/10 16:42:25;;;;;;;3.90;2.30;;;;;;;;;;10626737;27;20019;-84
2022/02/10 16:47:26;;;;;;;3.30;2.05;;;;;;;;;;10631934;27;20026;-83
2022/02/10 16:52:34;;;;;;;3.30;2.00;;;;;;;;;;10629532;27;20114;-85
2022/02/10 16:57:47;;;;;;;2.92;1.90;;;;;;;;;;10646703;27;20015;-85
2022/02/10 17:03:11;;;;;;;3.75;2.33;;;;;;;;;;10623193;27;20394;-84
2022/02/10 17:19:14;;;;;;;3.72;1.67;;;;;;;;;;10642981;27;20031;-84
2022/02/10 17:29:57;;;;;;;10.43;2.80;;;;;;;;;;10616963;27;20039;-86
2022/02/10 17:56:59;;;;;;;3.17;2.20;;;;;;;;;;10632180;27;20508;-86
2022/02/10 18:02:03;;;;;;;4.00;2.95;;;;;;;;;;10610758;27;20058;-86
2022/02/10 18:07:09;;;;;;;4.47;2.63;;;;;;;;;;10612829;27;20478;-86
2022/02/10 18:17:28;;;;;;;4.43;2.72;;;;;;;;;;10635132;27;20117;-86
2022/02/10 18:28:03;;;;;;;5.45;2.97;;;;;;;;;;10627165;27;20035;-86
2022/02/10 19:11:09;;;;;;;2.70;1.45;;;;;;;;;;10626365;28;20034;-86
2022/02/10 19:16:11;;;;;;;2.95;1.95;;;;;;;;;;10639933;28;20027;-86
2022/02/10 19:21:13;;;;;;;3.50;1.70;;;;;;;;;;10625330;28;20110;-86
2022/02/10 19:26:16;;;;;;;2.85;1.60;;;;;;;;;;10607522;28;20386;-86
2022/02/10 19:31:20;;;;;;;1.95;1.25;;;;;;;;;;10607392;28;20020;-86
2022/02/10 19:36:28;;;;;;;2.40;1.30;;;;;;;;;;10623652;28;20051;-86
2022/02/10 19:41:33;;;;;;;1.52;1.05;;;;;;;;;;10606839;28;20513;-86
2022/02/10 19:46:37;;;;;;;2.40;1.10;;;;;;;;;;10590053;28;20027;-86
2022/02/10 19:51:48;;;;;;;3.08;1.50;;;;;;;;;;10605854;27;20084;-86
2022/02/10 19:56:50;;;;;;;1.88;1.33;;;;;;;;;;10616988;27;20026;-86
2022/02/10 20:01:53;;;;;;;1.67;1.23;;;;;;;;;;10599864;27;20043;-86
2022/02/10 20:07:16;;;;;;;4.03;2.20;;;;;;;;;;10631675;27;20035;-86
2022/02/10 20:12:17;;;;;;;5.05;2.55;;;;;;;;;;10614668;27;20110;-86
2022/02/10 20:17:19;;;;;;;3.38;2.25;;;;;;;;;;10631673;27;20027;-86
2022/02/10 20:22:24;;;;;;;3.03;1.77;;;;;;;;;;10613781;27;20080;-86
2022/02/10 20:27:26;;;;;;;3.00;1.50;;;;;;;;;;10633894;27;20558;-86
2022/02/10 20:32:29;;;;;;;1.98;1.30;;;;;;;;;;10629719;27;20042;-86
2022/02/10 20:37:30;;;;;;;2.33;1.27;;;;;;;;;;10612964;27;20044;-85
2022/02/10 20:42:32;;;;;;;1.98;1.40;;;;;;;;;;10612151;27;20023;-86
2022/02/10 20:47:34;;;;;;;2.58;1.30;;;;;;;;;;10632215;27;20026;-86
2022/02/10 20:52:37;;;;;;;1.90;1.20;;;;;;;;;;10631253;27;20031;-86
2022/02/10 20:57:39;;;;;;;2.97;1.35;;;;;;;;;;10612619;27;20027;-86
2022/02/10 21:02:44;;;;;;;1.70;1.20;;;;;;;;;;10611722;27;20031;-86
2022/02/10 21:07:55;;;;;;;2.47;1.70;;;;;;;;;;10596539;27;20093;-86
